createdAt,value
2022-11-13T00:01:13.984Z,10.60
2022-11-13T00:03:42.004Z,10.33
2022-11-13T00:06:11.758Z,11.20
2022-11-13T00:08:39.978Z,11.47
2022-11-13T00:11:09.923Z,11.13
2022-11-13T00:13:40.163Z,11.47
2022-11-13T00:16:11.973Z,10.50
2022-11-13T00:18:42.857Z,11.87
2022-11-13T00:21:14.176Z,10.30
2022-11-13T00:23:42.697Z,9.87
2022-11-13T00:26:13.006Z,10.60
2022-11-13T00:28:44.118Z,9.53
2022-11-13T00:31:14.116Z,9.30
2022-11-13T00:34:09.148Z,9.10
2022-11-13T00:36:30.858Z,9.57
2022-11-13T00:38:59.055Z,9.20
2022-11-13T00:41:27.209Z,8.70
2022-11-13T00:43:56.662Z,8.37
2022-11-13T00:46:24.591Z,8.93
2022-11-13T00:48:53.464Z,8.57
2022-11-13T00:51:21.538Z,8.17
2022-11-13T00:53:49.450Z,9.07
2022-11-13T00:56:17.680Z,8.20
2022-11-13T00:58:45.894Z,8.03
2022-11-13T01:01:18.489Z,7.93
2022-11-13T01:03:46.263Z,7.90
2022-11-13T01:06:19.097Z,7.93
2022-11-13T01:08:47.587Z,7.20
2022-11-13T01:11:17.852Z,6.83
2022-11-13T01:13:48.970Z,7.03
2022-11-13T01:16:19.866Z,6.87
2022-11-13T01:18:48.358Z,7.53
2022-11-13T01:21:18.620Z,7.23
2022-11-13T01:23:47.230Z,7.43
2022-11-13T01:26:20.330Z,7.10
2022-11-13T01:28:48.906Z,7.30
2022-11-13T01:31:20.527Z,6.70
2022-11-13T01:33:49.432Z,6.37
2022-11-13T01:36:19.906Z,6.00
2022-11-13T01:38:49.360Z,6.17
2022-11-13T01:41:23.389Z,5.67
2022-11-13T01:43:52.399Z,5.47
2022-11-13T01:46:26.600Z,5.40
2022-11-13T01:49:00.626Z,5.50
2022-11-13T01:51:32.354Z,5.07
2022-11-13T01:54:02.107Z,4.57
2022-11-13T01:56:31.089Z,4.23
2022-11-13T01:59:04.592Z,4.33
2022-11-13T02:01:35.482Z,4.37
2022-11-13T02:04:04.561Z,4.10
2022-11-13T02:06:37.665Z,3.50
2022-11-13T02:09:07.600Z,4.10
2022-11-13T02:11:35.396Z,3.90
2022-11-13T02:14:03.951Z,3.73
2022-11-13T02:16:34.569Z,3.90
2022-11-13T02:19:06.152Z,3.77
2022-11-13T02:21:39.455Z,3.60
2022-11-13T02:24:26.062Z,3.83
2022-11-13T02:26:55.765Z,3.07
2022-11-13T02:29:24.285Z,3.40
2022-11-13T02:31:52.557Z,3.27
2022-11-13T02:34:21.295Z,2.90
2022-11-13T02:36:50.754Z,3.40
2022-11-13T02:39:20.344Z,3.40
2022-11-13T02:41:48.717Z,3.37
2022-11-13T02:44:16.661Z,3.40
2022-11-13T02:46:44.460Z,3.60
2022-11-13T02:49:12.371Z,3.77
2022-11-13T02:51:40.736Z,3.60
2022-11-13T02:54:11.741Z,4.03
2022-11-13T02:56:44.264Z,4.20
2022-11-13T02:59:12.258Z,3.90
2022-11-13T03:01:40.049Z,3.57
2022-11-13T03:04:07.905Z,3.60
2022-11-13T03:06:36.497Z,4.40
2022-11-13T03:09:04.466Z,3.60
2022-11-13T03:11:32.629Z,3.40
2022-11-13T03:14:02.083Z,3.27
2022-11-13T03:16:30.015Z,3.40
2022-11-13T03:18:57.880Z,3.60
2022-11-13T03:21:25.952Z,3.13
2022-11-13T03:23:56.854Z,3.07
2022-11-13T03:26:25.211Z,3.10
2022-11-13T03:28:53.472Z,3.20
2022-11-13T03:31:23.750Z,3.43
2022-11-13T03:33:54.733Z,3.67
2022-11-13T03:36:23.053Z,3.00
2022-11-13T03:38:51.019Z,4.10
2022-11-13T03:41:19.050Z,3.27
2022-11-13T03:43:47.125Z,3.30
2022-11-13T03:46:15.744Z,2.90
2022-11-13T03:48:45.241Z,3.17
2022-11-13T03:51:13.091Z,3.23
2022-11-13T03:53:41.161Z,3.40
2022-11-13T03:56:09.472Z,2.83
2022-11-13T03:58:40.122Z,3.00
2022-11-13T04:01:08.309Z,2.83
2022-11-13T04:03:37.028Z,2.70
2022-11-13T04:06:06.996Z,2.70
2022-11-13T04:08:36.072Z,2.70
2022-11-13T04:11:08.837Z,2.77
2022-11-13T04:13:37.112Z,2.73
2022-11-13T04:16:05.045Z,2.70
2022-11-13T04:18:33.058Z,3.30
2022-11-13T04:21:01.733Z,2.93
2022-11-13T04:23:31.807Z,2.50
2022-11-13T04:26:00.545Z,2.93
2022-11-13T04:28:29.052Z,2.60
2022-11-13T04:30:57.835Z,2.77
2022-11-13T04:33:26.125Z,2.20
2022-11-13T04:35:53.993Z,2.77
2022-11-13T04:38:21.919Z,2.27
2022-11-13T04:41:12.641Z,2.10
2022-11-13T04:43:39.430Z,2.00
2022-11-13T04:46:07.249Z,2.00
2022-11-13T04:48:35.120Z,2.17
2022-11-13T04:51:02.869Z,2.23
2022-11-13T04:53:30.724Z,2.27
2022-11-13T04:55:59.953Z,2.30
2022-11-13T04:58:28.416Z,2.20
2022-11-13T05:00:56.540Z,2.20
2022-11-13T05:03:24.406Z,2.10
2022-11-13T05:05:52.269Z,1.60
2022-11-13T05:08:20.113Z,2.10
2022-11-13T05:10:48.026Z,2.17
2022-11-13T05:13:17.637Z,2.00
2022-11-13T05:15:45.392Z,2.20
2022-11-13T05:18:13.281Z,2.07
2022-11-13T05:20:41.229Z,1.70
2022-11-13T05:23:09.234Z,1.80
2022-11-13T05:25:37.597Z,1.77
2022-11-13T05:28:05.986Z,1.80
2022-11-13T05:30:35.263Z,1.60
2022-11-13T05:33:03.487Z,1.73
2022-11-13T05:35:31.403Z,1.87
2022-11-13T05:38:01.689Z,1.60
2022-11-13T05:40:29.851Z,1.70
2022-11-13T05:42:57.745Z,1.40
2022-11-13T05:45:25.693Z,1.40
2022-11-13T05:47:54.934Z,1.30
2022-11-13T05:50:22.903Z,1.47
2022-11-13T05:52:51.763Z,1.30
2022-11-13T05:55:23.180Z,1.40
2022-11-13T05:57:52.200Z,1.40
2022-11-13T06:00:20.124Z,1.40
2022-11-13T06:02:48.703Z,1.30
2022-11-13T06:05:18.394Z,1.33
2022-11-13T06:07:46.825Z,1.50
2022-11-13T06:10:14.709Z,1.73
2022-11-13T06:12:42.580Z,1.57
2022-11-13T06:15:11.257Z,1.60
2022-11-13T06:17:39.014Z,1.50
2022-11-13T06:20:09.485Z,1.60
2022-11-13T06:22:39.188Z,1.60
2022-11-13T06:25:08.015Z,1.50
2022-11-13T06:27:35.906Z,1.77
2022-11-13T06:30:04.066Z,1.80
2022-11-13T06:32:31.915Z,2.40
2022-11-13T06:34:59.755Z,2.10
2022-11-13T06:37:29.635Z,2.10
2022-11-13T06:40:02.017Z,1.93
2022-11-13T06:42:29.851Z,2.33
2022-11-13T06:44:57.941Z,2.43
2022-11-13T06:47:25.760Z,2.80
2022-11-13T06:49:53.880Z,2.20
2022-11-13T06:52:22.458Z,2.27
2022-11-13T06:54:50.511Z,2.00
2022-11-13T06:57:20.130Z,1.80
2022-11-13T06:59:49.828Z,1.90
2022-11-13T07:02:17.684Z,1.50
2022-11-13T07:04:45.811Z,1.80
2022-11-13T07:07:14.347Z,1.57
2022-11-13T07:09:42.212Z,1.67
2022-11-13T07:12:09.956Z,1.80
2022-11-13T07:14:39.354Z,1.80
2022-11-13T07:17:10.126Z,1.80
2022-11-13T07:19:40.056Z,1.60
2022-11-13T07:22:08.126Z,1.73
2022-11-13T07:24:37.830Z,1.97
2022-11-13T07:27:05.999Z,1.60
2022-11-13T07:29:33.769Z,2.07
2022-11-13T07:32:03.412Z,1.90
2022-11-13T07:34:31.231Z,2.00
2022-11-13T07:36:59.143Z,1.67
2022-11-13T07:39:29.125Z,1.63
2022-11-13T07:41:57.223Z,2.00
2022-11-13T07:44:52.823Z,1.70
2022-11-13T07:47:17.197Z,1.83
2022-11-13T07:49:45.013Z,1.77
2022-11-13T07:52:12.996Z,2.30
2022-11-13T07:54:41.346Z,2.20
2022-11-13T07:57:09.426Z,2.20
2022-11-13T07:59:37.498Z,2.10
2022-11-13T08:02:05.664Z,2.00
2022-11-13T08:04:34.979Z,2.00
2022-11-13T08:07:02.787Z,1.80
2022-11-13T08:09:30.970Z,1.80
2022-11-13T08:11:58.795Z,2.77
2022-11-13T08:14:26.620Z,2.50
2022-11-13T08:16:54.576Z,2.73
2022-11-13T08:19:22.332Z,2.50
2022-11-13T08:21:51.611Z,2.63
2022-11-13T08:24:19.778Z,2.80
2022-11-13T08:26:47.844Z,3.40
2022-11-13T08:29:15.926Z,3.43
2022-11-13T08:31:44.489Z,4.07
2022-11-13T08:34:12.295Z,4.53
2022-11-13T08:36:40.267Z,3.80
2022-11-13T08:39:10.266Z,3.20
2022-11-13T08:41:38.391Z,2.70
2022-11-13T08:44:06.242Z,2.03
2022-11-13T08:46:35.027Z,1.80
2022-11-13T08:49:04.872Z,3.90
2022-11-13T08:51:32.583Z,39.97
2022-11-13T08:54:00.475Z,43.47
2022-11-13T08:56:29.859Z,31.67
2022-11-13T08:58:57.629Z,12.37
2022-11-13T09:01:25.420Z,5.67
2022-11-13T09:03:53.487Z,3.30
2022-11-13T09:06:22.019Z,3.20
2022-11-13T09:08:49.763Z,2.70
2022-11-13T09:11:17.672Z,2.97
2022-11-13T09:13:52.125Z,2.20
2022-11-13T09:16:21.697Z,2.00
2022-11-13T09:18:51.547Z,1.90
2022-11-13T09:21:19.661Z,1.90
2022-11-13T09:23:47.661Z,1.80
2022-11-13T09:26:15.410Z,1.60
2022-11-13T09:28:43.208Z,1.50
2022-11-13T09:31:12.854Z,1.60
2022-11-13T09:33:40.798Z,1.60
2022-11-13T09:36:12.007Z,1.33
2022-11-13T09:38:40.284Z,1.80
2022-11-13T09:41:12.843Z,2.00
2022-11-13T09:43:47.901Z,2.00
2022-11-13T09:46:23.097Z,1.70
2022-11-13T09:48:55.423Z,1.73
2022-11-13T09:51:28.768Z,1.70
2022-11-13T09:53:57.250Z,1.70
2022-11-13T09:56:32.539Z,1.70
2022-11-13T09:59:05.260Z,1.63
2022-11-13T10:01:41.473Z,1.50
2022-11-13T10:04:15.726Z,1.70
2022-11-13T10:06:55.109Z,1.90
2022-11-13T10:09:36.209Z,2.10
2022-11-13T10:12:08.692Z,2.10
2022-11-13T10:14:40.094Z,2.00
2022-11-13T10:17:16.386Z,2.10
2022-11-13T10:19:52.983Z,1.60
2022-11-13T10:22:32.341Z,1.60
2022-11-13T10:25:10.685Z,1.50
2022-11-13T10:27:39.419Z,1.37
2022-11-13T10:30:17.099Z,1.90
2022-11-13T10:32:47.571Z,2.17
2022-11-13T10:35:39.142Z,1.40
2022-11-13T10:38:10.339Z,1.40
2022-11-13T10:40:40.959Z,2.00
2022-11-13T10:43:15.912Z,2.00
2022-11-13T10:45:46.112Z,3.40
2022-11-13T10:48:24.603Z,1.70
2022-11-13T10:50:57.891Z,1.50
2022-11-13T10:53:27.875Z,1.30
2022-11-13T10:55:59.332Z,1.40
2022-11-13T10:58:27.779Z,2.27
2022-11-13T11:00:55.957Z,2.50
2022-11-13T11:03:27.190Z,2.87
2022-11-13T11:05:57.748Z,2.83
2022-11-13T11:08:31.406Z,2.70
2022-11-13T11:11:18.728Z,3.20
2022-11-13T11:13:46.816Z,3.17
2022-11-13T11:16:21.064Z,2.80
2022-11-13T11:18:54.876Z,2.90
2022-11-13T11:21:26.725Z,2.67
2022-11-13T11:23:59.942Z,2.93
2022-11-13T11:26:32.513Z,3.00
2022-11-13T11:29:08.140Z,3.17
2022-11-13T11:31:43.161Z,2.80
2022-11-13T11:34:20.521Z,2.70
2022-11-13T11:36:57.729Z,2.87
2022-11-13T11:39:32.764Z,2.87
2022-11-13T11:42:11.322Z,3.03
2022-11-13T11:44:51.035Z,2.83
2022-11-13T11:47:20.600Z,2.90
2022-11-13T11:49:50.937Z,2.57
2022-11-13T11:52:31.473Z,2.87
2022-11-13T11:55:13.396Z,2.60
2022-11-13T11:57:51.334Z,2.70
2022-11-13T12:00:21.407Z,2.73
2022-11-13T12:03:10.068Z,2.30
2022-11-13T12:05:46.447Z,2.40
2022-11-13T12:08:23.676Z,2.40
2022-11-13T12:10:59.589Z,2.20
2022-11-13T12:13:32.985Z,2.10
2022-11-13T12:16:12.114Z,2.00
2022-11-13T12:18:51.414Z,1.77
2022-11-13T12:21:40.650Z,2.20
2022-11-13T12:24:24.754Z,3.23
2022-11-13T12:27:01.759Z,2.97
2022-11-13T12:29:52.916Z,2.30
2022-11-13T12:32:31.002Z,1.90
2022-11-13T12:35:05.462Z,1.70
2022-11-13T12:37:52.948Z,1.67
2022-11-13T12:40:29.665Z,1.40
2022-11-13T12:43:07.793Z,1.60
2022-11-13T12:45:49.982Z,1.80
2022-11-13T12:48:29.925Z,1.70
2022-11-13T12:51:00.268Z,1.50
2022-11-13T12:53:31.733Z,1.40
2022-11-13T12:56:02.541Z,1.53
2022-11-13T12:58:33.262Z,1.60
2022-11-13T13:01:07.491Z,1.40
2022-11-13T13:03:50.919Z,1.90
2022-11-13T13:06:29.848Z,1.80
2022-11-13T13:09:07.151Z,2.03
2022-11-13T13:11:43.657Z,1.70
2022-11-13T13:14:26.458Z,1.67
2022-11-13T13:17:06.326Z,1.80
2022-11-13T13:19:35.725Z,2.00
2022-11-13T13:22:03.747Z,1.67
2022-11-13T13:24:35.451Z,2.00
2022-11-13T13:27:03.817Z,1.50
2022-11-13T13:29:32.414Z,1.40
2022-11-13T13:32:11.722Z,2.20
2022-11-13T13:34:54.290Z,1.40
2022-11-13T13:37:31.908Z,1.60
2022-11-13T13:40:16.029Z,1.47
2022-11-13T13:42:56.253Z,1.70
2022-11-13T13:45:36.239Z,1.50
2022-11-13T13:48:12.152Z,1.70
2022-11-13T13:50:45.516Z,1.50
2022-11-13T13:53:16.786Z,1.50
2022-11-13T13:55:50.433Z,1.20
2022-11-13T13:58:24.316Z,1.60
2022-11-13T14:01:17.729Z,2.70
2022-11-13T14:03:47.327Z,2.13
2022-11-13T14:06:21.590Z,1.40
2022-11-13T14:08:49.833Z,1.70
2022-11-13T14:11:21.335Z,1.50
2022-11-13T14:13:49.652Z,1.27
2022-11-13T14:16:17.439Z,1.33
2022-11-13T14:18:45.457Z,1.37
2022-11-13T14:21:17.059Z,1.30
2022-11-13T14:23:48.634Z,1.80
2022-11-13T14:26:16.931Z,1.40
2022-11-13T14:28:53.425Z,1.40
2022-11-13T14:31:26.724Z,1.37
2022-11-13T14:33:55.076Z,1.80
2022-11-13T14:36:29.966Z,1.83
2022-11-13T14:38:58.531Z,1.77
2022-11-13T14:41:33.527Z,1.87
2022-11-13T14:44:03.508Z,1.57
2022-11-13T14:46:34.982Z,1.63
2022-11-13T14:49:02.861Z,2.70
2022-11-13T14:51:32.453Z,2.10
2022-11-13T14:54:07.497Z,2.20
2022-11-13T14:56:40.547Z,2.20
2022-11-13T14:59:16.880Z,2.10
2022-11-13T15:01:55.292Z,1.80
2022-11-13T15:04:24.105Z,1.90
2022-11-13T15:06:55.704Z,1.90
2022-11-13T15:09:25.600Z,1.57
2022-11-13T15:11:54.005Z,1.50
2022-11-13T15:14:24.016Z,1.50
2022-11-13T15:16:53.837Z,1.80
2022-11-13T15:19:28.349Z,1.73
2022-11-13T15:22:25.304Z,1.50
2022-11-13T15:24:44.155Z,1.67
2022-11-13T15:27:14.846Z,1.40
2022-11-13T15:29:44.754Z,1.57
2022-11-13T15:32:13.627Z,1.40
2022-11-13T15:34:41.782Z,1.60
2022-11-13T15:37:14.018Z,1.60
2022-11-13T15:39:42.124Z,1.40
2022-11-13T15:42:16.203Z,1.50
2022-11-13T15:44:46.126Z,1.33
2022-11-13T15:47:26.866Z,1.50
2022-11-13T15:50:14.481Z,1.50
2022-11-13T15:52:45.864Z,1.60
2022-11-13T15:55:23.524Z,1.57
2022-11-13T15:57:52.338Z,1.53
2022-11-13T16:00:25.320Z,1.70
2022-11-13T16:02:55.649Z,2.83
2022-11-13T16:05:25.539Z,1.60
2022-11-13T16:07:54.901Z,1.40
2022-11-13T16:10:25.122Z,1.47
2022-11-13T16:12:53.737Z,1.60
2022-11-13T16:15:23.088Z,1.80
2022-11-13T16:17:54.838Z,1.70
2022-11-13T16:20:22.886Z,2.00
2022-11-13T16:22:51.109Z,2.20
2022-11-13T16:25:21.013Z,1.63
2022-11-13T16:27:49.087Z,1.60
2022-11-13T16:30:20.304Z,1.80
2022-11-13T16:32:49.889Z,1.40
2022-11-13T16:35:21.129Z,1.77
2022-11-13T16:37:49.409Z,1.40
2022-11-13T16:40:22.906Z,1.47
2022-11-13T16:42:51.621Z,1.57
2022-11-13T16:45:20.634Z,1.80
2022-11-13T16:47:51.009Z,1.87
2022-11-13T16:50:24.149Z,1.80
2022-11-13T16:52:52.384Z,2.00
2022-11-13T16:55:20.302Z,1.97
2022-11-13T16:57:48.280Z,2.00
2022-11-13T17:00:18.210Z,2.20
2022-11-13T17:02:46.989Z,2.40
2022-11-13T17:05:17.693Z,2.47
2022-11-13T17:07:47.039Z,2.43
2022-11-13T17:10:31.505Z,3.13
2022-11-13T17:13:00.564Z,3.30
2022-11-13T17:15:28.575Z,2.87
2022-11-13T17:17:58.469Z,3.13
2022-11-13T17:20:28.277Z,3.10
2022-11-13T17:22:56.234Z,3.10
2022-11-13T17:25:28.060Z,2.70
2022-11-13T17:27:56.163Z,2.67
2022-11-13T17:30:24.442Z,2.80
2022-11-13T17:32:52.547Z,3.00
2022-11-13T17:35:20.570Z,2.70
2022-11-13T17:37:51.725Z,2.43
2022-11-13T17:40:19.998Z,3.20
2022-11-13T17:42:49.669Z,2.73
2022-11-13T17:45:17.510Z,3.30
2022-11-13T17:47:46.594Z,3.60
2022-11-13T17:50:15.041Z,3.43
2022-11-13T17:52:43.291Z,4.20
2022-11-13T17:55:14.231Z,4.23
2022-11-13T17:57:42.198Z,4.33
2022-11-13T18:00:11.479Z,4.90
2022-11-13T18:02:39.639Z,4.60
2022-11-13T18:05:10.233Z,4.53
2022-11-13T18:07:38.507Z,4.97
2022-11-13T18:10:07.297Z,5.37
2022-11-13T18:12:36.919Z,5.57
2022-11-13T18:15:05.339Z,5.70
2022-11-13T18:17:33.123Z,5.57
2022-11-13T18:20:02.253Z,6.27
2022-11-13T18:22:30.364Z,6.10
2022-11-13T18:24:58.249Z,6.90
2022-11-13T18:27:26.085Z,7.07
2022-11-13T18:29:55.908Z,8.23
2022-11-13T18:32:23.798Z,8.27
2022-11-13T18:34:52.269Z,7.87
2022-11-13T18:37:20.454Z,8.83
2022-11-13T18:39:48.691Z,7.67
2022-11-13T18:42:19.335Z,8.47
2022-11-13T18:44:47.309Z,9.43
2022-11-13T18:47:17.891Z,9.47
2022-11-13T18:49:45.591Z,9.57
2022-11-13T18:52:13.856Z,10.83
2022-11-13T18:54:41.946Z,9.23
2022-11-13T18:57:09.741Z,9.83
2022-11-13T18:59:37.782Z,9.43
2022-11-13T19:02:06.226Z,9.70
2022-11-13T19:04:39.799Z,9.80
2022-11-13T19:07:08.833Z,9.43
2022-11-13T19:09:36.737Z,9.40
2022-11-13T19:12:04.962Z,9.80
2022-11-13T19:14:32.686Z,9.20
2022-11-13T19:17:00.409Z,9.70
2022-11-13T19:19:28.671Z,10.43
2022-11-13T19:21:59.441Z,10.73
2022-11-13T19:24:27.452Z,10.73
2022-11-13T19:26:56.400Z,11.07
2022-11-13T19:29:24.599Z,10.37
2022-11-13T19:31:53.826Z,10.43
2022-11-13T19:34:22.138Z,11.03
2022-11-13T19:36:51.442Z,9.93
2022-11-13T19:39:20.735Z,10.97
2022-11-13T19:41:48.876Z,10.23
2022-11-13T19:44:17.128Z,10.97
2022-11-13T19:46:46.928Z,10.13
2022-11-13T19:49:14.692Z,10.13
2022-11-13T19:51:42.996Z,10.53
2022-11-13T19:54:12.315Z,10.43
2022-11-13T19:56:42.301Z,10.13
2022-11-13T19:59:11.409Z,10.10
2022-11-13T20:01:39.262Z,10.27
2022-11-13T20:04:07.417Z,9.90
2022-11-13T20:06:35.725Z,10.20
2022-11-13T20:09:04.106Z,9.90
2022-11-13T20:11:32.454Z,10.77
2022-11-13T20:14:01.906Z,10.70
2022-11-13T20:16:30.293Z,10.37
2022-11-13T20:18:59.272Z,10.20
2022-11-13T20:21:28.592Z,10.47
2022-11-13T20:23:58.480Z,10.20
2022-11-13T20:26:28.169Z,9.33
2022-11-13T20:28:56.631Z,10.80
2022-11-13T20:31:28.022Z,10.67
2022-11-13T20:33:57.770Z,10.00
2022-11-13T20:36:26.137Z,10.73
2022-11-13T20:38:55.628Z,10.30
2022-11-13T20:41:24.976Z,10.07
2022-11-13T20:43:55.785Z,10.37
2022-11-13T20:46:25.842Z,10.03
2022-11-13T20:48:53.840Z,10.33
2022-11-13T20:51:23.773Z,11.00
2022-11-13T20:53:52.035Z,10.67
2022-11-13T20:56:21.948Z,10.80
2022-11-13T20:58:49.858Z,10.20
2022-11-13T21:01:20.176Z,10.43
2022-11-13T21:03:50.100Z,10.27
2022-11-13T21:06:21.920Z,11.00
2022-11-13T21:08:50.216Z,9.63
2022-11-13T21:11:23.011Z,10.37
2022-11-13T21:13:52.959Z,10.13
2022-11-13T21:16:20.841Z,10.40
2022-11-13T21:18:50.939Z,9.80
2022-11-13T21:21:21.520Z,9.90
2022-11-13T21:23:49.872Z,10.93
2022-11-13T21:26:18.209Z,9.47
2022-11-13T21:28:46.541Z,10.27
2022-11-13T21:31:16.261Z,10.67
2022-11-13T21:33:45.941Z,9.60
2022-11-13T21:36:18.001Z,10.23
2022-11-13T21:38:47.209Z,9.90
2022-11-13T21:41:25.032Z,10.63
2022-11-13T21:43:57.164Z,10.33
2022-11-13T21:46:28.340Z,9.50
2022-11-13T21:48:58.341Z,9.40
2022-11-13T21:51:28.282Z,9.77
2022-11-13T21:53:56.657Z,9.40
2022-11-13T21:56:25.085Z,10.47
2022-11-13T21:58:54.358Z,9.53
2022-11-13T22:01:23.855Z,9.70
2022-11-13T22:03:52.057Z,10.07
2022-11-13T22:06:22.330Z,9.93
2022-11-13T22:08:57.735Z,10.17
2022-11-13T22:11:26.748Z,10.33
2022-11-13T22:13:55.331Z,10.43
2022-11-13T22:16:23.643Z,9.77
2022-11-13T22:18:54.900Z,9.23
2022-11-13T22:21:23.596Z,9.80
2022-11-13T22:23:51.872Z,10.30
2022-11-13T22:26:23.961Z,9.77
2022-11-13T22:28:53.376Z,9.97
2022-11-13T22:31:23.002Z,10.27
2022-11-13T22:33:54.848Z,9.90
2022-11-13T22:36:26.201Z,9.37
2022-11-13T22:38:54.940Z,9.63
2022-11-13T22:41:27.579Z,10.87
2022-11-13T22:43:57.946Z,10.37
2022-11-13T22:46:28.838Z,9.73
2022-11-13T22:48:58.011Z,10.50
2022-11-13T22:51:29.618Z,10.13
2022-11-13T22:53:59.228Z,10.03
2022-11-13T22:56:30.703Z,9.70
2022-11-13T22:59:00.775Z,10.07
2022-11-13T23:01:30.340Z,9.50
2022-11-13T23:03:59.395Z,9.67
2022-11-13T23:06:29.472Z,9.67
2022-11-13T23:08:57.630Z,9.87
2022-11-13T23:11:28.082Z,10.57
2022-11-13T23:13:59.014Z,10.00
2022-11-13T23:16:28.392Z,10.40
2022-11-13T23:18:58.183Z,10.23
2022-11-13T23:21:26.724Z,10.87
2022-11-13T23:23:55.381Z,10.50
2022-11-13T23:26:25.525Z,9.80
2022-11-13T23:28:54.170Z,10.90
2022-11-13T23:31:23.966Z,10.07
2022-11-13T23:33:52.396Z,9.73
2022-11-13T23:36:20.734Z,10.33
2022-11-13T23:38:48.968Z,9.70
2022-11-13T23:41:17.018Z,10.67
2022-11-13T23:44:07.766Z,9.53
2022-11-13T23:46:34.422Z,9.30
2022-11-13T23:49:02.922Z,9.30
2022-11-13T23:51:30.825Z,10.20
2022-11-13T23:53:58.726Z,9.43
2022-11-13T23:56:26.719Z,10.00
2022-11-13T23:58:54.909Z,9.90
